sensor_id;sensor_type;location;lat;lon;timestamp;pressure;altitude;pressure_sealevel;temperature;humidity
6020;BME280;3038;51.122;6.840;2022-08-01T00:01:51;101271.09;;;20.36;86.04
6020;BME280;3038;51.122;6.840;2022-08-01T00:04:16;101267.38;;;20.40;85.43
6020;BME280;3038;51.122;6.840;2022-08-01T00:06:42;101267.38;;;20.40;85.59
6020;BME280;3038;51.122;6.840;2022-08-01T00:09:07;101269.06;;;20.41;85.56
6020;BME280;3038;51.122;6.840;2022-08-01T00:11:32;101272.31;;;20.45;85.50
6020;BME280;3038;51.122;6.840;2022-08-01T00:13:58;101268.59;;;20.49;84.97
6020;BME280;3038;51.122;6.840;2022-08-01T00:16:23;101273.56;;;20.54;84.71
6020;BME280;3038;51.122;6.840;2022-08-01T00:18:50;101268.69;;;20.48;84.94
6020;BME280;3038;51.122;6.840;2022-08-01T00:21:16;101273.28;;;20.44;84.90
6020;BME280;3038;51.122;6.840;2022-08-01T00:23:41;101269.22;;;20.38;85.00
6020;BME280;3038;51.122;6.840;2022-08-01T00:26:07;101273.72;;;20.36;85.14
6020;BME280;3038;51.122;6.840;2022-08-01T00:28:32;101276.50;;;20.33;85.15
6020;BME280;3038;51.122;6.840;2022-08-01T00:30:57;101276.31;;;20.36;85.07
6020;BME280;3038;51.122;6.840;2022-08-01T00:33:23;101277.34;;;20.34;84.89
6020;BME280;3038;51.122;6.840;2022-08-01T00:35:48;101272.78;;;20.37;84.77
6020;BME280;3038;51.122;6.840;2022-08-01T00:38:14;101277.34;;;20.34;84.54
6020;BME280;3038;51.122;6.840;2022-08-01T00:40:39;101271.38;;;20.32;84.83
6020;BME280;3038;51.122;6.840;2022-08-01T00:43:04;101268.16;;;20.27;84.90
6020;BME280;3038;51.122;6.840;2022-08-01T00:45:30;101272.47;;;20.28;84.60
6020;BME280;3038;51.122;6.840;2022-08-01T00:47:55;101269.78;;;20.29;84.77
6020;BME280;3038;51.122;6.840;2022-08-01T00:50:21;101273.31;;;20.28;84.66
6020;BME280;3038;51.122;6.840;2022-08-01T00:52:46;101269.09;;;20.25;84.62
6020;BME280;3038;51.122;6.840;2022-08-01T00:55:12;101269.19;;;20.24;84.44
6020;BME280;3038;51.122;6.840;2022-08-01T00:57:38;101269.94;;;20.26;84.39
6020;BME280;3038;51.122;6.840;2022-08-01T01:00:05;101272.19;;;20.32;84.12
6020;BME280;3038;51.122;6.840;2022-08-01T01:02:32;101269.59;;;20.32;83.98
6020;BME280;3038;51.122;6.840;2022-08-01T01:04:57;101267.91;;;20.31;83.81
6020;BME280;3038;51.122;6.840;2022-08-01T01:16:01;101275.69;;;20.17;84.62
6020;BME280;3038;51.122;6.840;2022-08-01T01:18:34;101272.47;;;20.12;84.28
6020;BME280;3038;51.122;6.840;2022-08-01T01:21:45;101270.81;;;20.11;84.16
6020;BME280;3038;51.122;6.840;2022-08-01T01:26:53;101277.91;;;20.09;84.93
6020;BME280;3038;51.122;6.840;2022-08-01T01:29:32;101270.31;;;20.04;84.97
6020;BME280;3038;51.122;6.840;2022-08-01T01:32:11;101268.47;;;20.06;84.70
6020;BME280;3038;51.122;6.840;2022-08-01T01:34:40;101274.94;;;19.99;84.77
6020;BME280;3038;51.122;6.840;2022-08-01T01:37:17;101279.25;;;20.00;85.00
6020;BME280;3038;51.122;6.840;2022-08-01T01:39:44;101269.16;;;19.94;84.85
6020;BME280;3038;51.122;6.840;2022-08-01T01:42:11;101275.91;;;19.98;84.48
6020;BME280;3038;51.122;6.840;2022-08-01T01:44:38;101269.72;;;19.99;84.84
6020;BME280;3038;51.122;6.840;2022-08-01T01:47:04;101272.06;;;20.03;84.46
6020;BME280;3038;51.122;6.840;2022-08-01T01:49:31;101273.00;;;20.02;84.68
6020;BME280;3038;51.122;6.840;2022-08-01T01:51:58;101274.88;;;20.00;84.82
6020;BME280;3038;51.122;6.840;2022-08-01T01:54:28;101282.78;;;19.99;84.97
6020;BME280;3038;51.122;6.840;2022-08-01T01:56:56;101278.09;;;19.90;85.17
6020;BME280;3038;51.122;6.840;2022-08-01T01:59:27;101272.09;;;19.88;85.50
6020;BME280;3038;51.122;6.840;2022-08-01T02:01:55;101277.16;;;19.91;85.15
6020;BME280;3038;51.122;6.840;2022-08-01T02:04:22;101275.56;;;19.88;85.36
6020;BME280;3038;51.122;6.840;2022-08-01T02:06:50;101275.75;;;19.85;85.27
6020;BME280;3038;51.122;6.840;2022-08-01T02:09:19;101271.44;;;19.84;85.36
6020;BME280;3038;51.122;6.840;2022-08-01T02:11:46;101265.28;;;19.85;85.51
6020;BME280;3038;51.122;6.840;2022-08-01T02:14:13;101264.94;;;19.91;85.51
6020;BME280;3038;51.122;6.840;2022-08-01T02:16:40;101266.88;;;19.88;85.17
6020;BME280;3038;51.122;6.840;2022-08-01T02:19:06;101261.59;;;19.89;85.39
6020;BME280;3038;51.122;6.840;2022-08-01T02:21:38;101264.94;;;19.91;85.42
6020;BME280;3038;51.122;6.840;2022-08-01T02:24:48;101273.34;;;19.96;85.57
6020;BME280;3038;51.122;6.840;2022-08-01T02:27:18;101275.97;;;19.96;85.00
6020;BME280;3038;51.122;6.840;2022-08-01T02:30:00;101269.31;;;19.91;86.08
6020;BME280;3038;51.122;6.840;2022-08-01T02:32:31;101271.66;;;19.95;85.16
6020;BME280;3038;51.122;6.840;2022-08-01T02:35:01;101270.00;;;19.94;85.11
6020;BME280;3038;51.122;6.840;2022-08-01T02:37:31;101262.22;;;19.93;85.10
6020;BME280;3038;51.122;6.840;2022-08-01T02:39:59;101265.53;;;19.96;85.23
6020;BME280;3038;51.122;6.840;2022-08-01T02:42:28;101259.34;;;19.97;85.14
6020;BME280;3038;51.122;6.840;2022-08-01T02:44:56;101258.72;;;19.94;84.97
6020;BME280;3038;51.122;6.840;2022-08-01T02:47:22;101268.97;;;19.97;84.94
6020;BME280;3038;51.122;6.840;2022-08-01T02:49:50;101258.78;;;19.92;85.03
6020;BME280;3038;51.122;6.840;2022-08-01T02:52:18;101261.75;;;19.86;85.26
6020;BME280;3038;51.122;6.840;2022-08-01T02:54:47;101260.91;;;19.86;85.62
6020;BME280;3038;51.122;6.840;2022-08-01T02:57:14;101256.53;;;19.86;85.36
6020;BME280;3038;51.122;6.840;2022-08-01T02:59:42;101258.03;;;19.90;85.38
6020;BME280;3038;51.122;6.840;2022-08-01T03:02:09;101254.31;;;19.94;85.10
6020;BME280;3038;51.122;6.840;2022-08-01T03:04:36;101258.72;;;19.94;85.23
6020;BME280;3038;51.122;6.840;2022-08-01T03:07:06;101254.66;;;19.88;85.38
6020;BME280;3038;51.122;6.840;2022-08-01T03:09:36;101258.56;;;19.81;85.83
6020;BME280;3038;51.122;6.840;2022-08-01T03:12:04;101255.94;;;19.81;85.72
6020;BME280;3038;51.122;6.840;2022-08-01T03:14:34;101261.47;;;19.91;85.71
6020;BME280;3038;51.122;6.840;2022-08-01T03:17:01;101265.72;;;19.93;85.21
6020;BME280;3038;51.122;6.840;2022-08-01T03:19:30;101268.13;;;19.96;85.23
6020;BME280;3038;51.122;6.840;2022-08-01T03:21:56;101268.97;;;19.97;85.07
6020;BME280;3038;51.122;6.840;2022-08-01T03:24:25;101272.25;;;20.00;85.21
6020;BME280;3038;51.122;6.840;2022-08-01T03:26:51;101276.72;;;19.98;85.18
6020;BME280;3038;51.122;6.840;2022-08-01T03:29:24;101282.78;;;19.99;85.44
6020;BME280;3038;51.122;6.840;2022-08-01T03:31:51;101276.22;;;19.92;85.26
6020;BME280;3038;51.122;6.840;2022-08-01T03:34:17;101273.78;;;19.89;85.42
6020;BME280;3038;51.122;6.840;2022-08-01T03:37:07;101276.66;;;19.84;86.53
6020;BME280;3038;51.122;6.840;2022-08-01T03:39:41;101277.34;;;19.88;86.04
6020;BME280;3038;51.122;6.840;2022-08-01T03:42:16;101278.00;;;19.91;86.12
6020;BME280;3038;51.122;6.840;2022-08-01T03:44:48;101281.13;;;19.98;85.82
6020;BME280;3038;51.122;6.840;2022-08-01T03:47:18;101279.34;;;19.98;85.33
6020;BME280;3038;51.122;6.840;2022-08-01T03:49:48;101277.56;;;19.99;85.32
6020;BME280;3038;51.122;6.840;2022-08-01T03:52:15;101274.19;;;19.97;85.31
6020;BME280;3038;51.122;6.840;2022-08-01T03:54:46;101277.91;;;19.93;85.73
6020;BME280;3038;51.122;6.840;2022-08-01T03:57:12;101286.34;;;19.98;85.31
6020;BME280;3038;51.122;6.840;2022-08-01T03:59:39;101280.44;;;19.94;85.63
6020;BME280;3038;51.122;6.840;2022-08-01T04:02:06;101282.22;;;19.94;85.46
6020;BME280;3038;51.122;6.840;2022-08-01T04:04:32;101271.94;;;19.91;85.69
6020;BME280;3038;51.122;6.840;2022-08-01T04:06:57;101278.91;;;19.90;86.00
6020;BME280;3038;51.122;6.840;2022-08-01T04:09:29;101279.50;;;19.95;85.61
6020;BME280;3038;51.122;6.840;2022-08-01T04:11:55;101275.78;;;19.99;85.57
6020;BME280;3038;51.122;6.840;2022-08-01T04:14:20;101276.66;;;20.00;85.80
6020;BME280;3038;51.122;6.840;2022-08-01T04:16:46;101274.69;;;20.03;85.39
6020;BME280;3038;51.122;6.840;2022-08-01T04:19:11;101271.78;;;19.94;85.98
6020;BME280;3038;51.122;6.840;2022-08-01T04:21:36;101267.56;;;19.91;85.95
6020;BME280;3038;51.122;6.840;2022-08-01T04:24:10;101272.69;;;19.93;86.52
6020;BME280;3038;51.122;6.840;2022-08-01T04:26:37;101276.53;;;20.01;85.79
6020;BME280;3038;51.122;6.840;2022-08-01T04:29:05;101282.28;;;20.08;85.68
6020;BME280;3038;51.122;6.840;2022-08-01T04:31:32;101281.63;;;20.04;85.96
6020;BME280;3038;51.122;6.840;2022-08-01T04:33:59;101284.16;;;20.06;85.82
6020;BME280;3038;51.122;6.840;2022-08-01T04:36:28;101280.84;;;20.02;85.77
6020;BME280;3038;51.122;6.840;2022-08-01T04:38:57;101291.38;;;20.01;86.07
6020;BME280;3038;51.122;6.840;2022-08-01T04:41:25;101291.31;;;20.02;85.91
6020;BME280;3038;51.122;6.840;2022-08-01T04:43:51;101290.47;;;20.02;86.16
6020;BME280;3038;51.122;6.840;2022-08-01T04:46:17;101297.28;;;20.04;86.15
6020;BME280;3038;51.122;6.840;2022-08-01T04:48:43;101301.50;;;20.07;85.82
6020;BME280;3038;51.122;6.840;2022-08-01T04:51:14;101300.81;;;20.03;86.43
6020;BME280;3038;51.122;6.840;2022-08-01T04:53:44;101302.50;;;20.04;86.52
6020;BME280;3038;51.122;6.840;2022-08-01T04:56:11;101308.41;;;20.08;86.31
6020;BME280;3038;51.122;6.840;2022-08-01T04:58:42;101318.53;;;20.14;85.92
6020;BME280;3038;51.122;6.840;2022-08-01T05:01:08;101312.19;;;20.18;85.73
6020;BME280;3038;51.122;6.840;2022-08-01T05:03:33;101311.94;;;20.23;85.79
6020;BME280;3038;51.122;6.840;2022-08-01T05:05:59;101311.59;;;20.29;85.50
6020;BME280;3038;51.122;6.840;2022-08-01T05:08:24;101316.47;;;20.35;85.06
6020;BME280;3038;51.122;6.840;2022-08-01T05:10:50;101317.78;;;20.27;85.51
6020;BME280;3038;51.122;6.840;2022-08-01T05:13:15;101320.53;;;20.25;85.45
6020;BME280;3038;51.122;6.840;2022-08-01T05:15:40;101312.75;;;20.23;85.36
6020;BME280;3038;51.122;6.840;2022-08-01T05:18:06;101318.56;;;20.29;85.41
6020;BME280;3038;51.122;6.840;2022-08-01T05:20:31;101315.28;;;20.25;85.42
6020;BME280;3038;51.122;6.840;2022-08-01T05:22:57;101322.38;;;20.23;85.63
6020;BME280;3038;51.122;6.840;2022-08-01T05:25:23;101328.78;;;20.17;85.69
6020;BME280;3038;51.122;6.840;2022-08-01T05:27:48;101321.97;;;20.15;85.72
6020;BME280;3038;51.122;6.840;2022-08-01T05:30:15;101316.75;;;20.15;85.68
6020;BME280;3038;51.122;6.840;2022-08-01T05:32:40;101328.84;;;20.16;85.73
6020;BME280;3038;51.122;6.840;2022-08-01T05:35:07;101329.28;;;20.24;85.75
6020;BME280;3038;51.122;6.840;2022-08-01T05:37:32;101330.03;;;20.26;85.61
6020;BME280;3038;51.122;6.840;2022-08-01T05:39:58;101327.06;;;20.32;85.30
6020;BME280;3038;51.122;6.840;2022-08-01T05:42:23;101324.03;;;20.40;85.03
6020;BME280;3038;51.122;6.840;2022-08-01T05:44:49;101323.19;;;20.39;85.10
6020;BME280;3038;51.122;6.840;2022-08-01T05:47:16;101338.16;;;20.52;84.86
6020;BME280;3038;51.122;6.840;2022-08-01T05:49:41;101335.97;;;20.60;84.17
6020;BME280;3038;51.122;6.840;2022-08-01T05:52:06;101336.13;;;20.57;84.18
6020;BME280;3038;51.122;6.840;2022-08-01T05:54:32;101340.00;;;20.50;84.38
6020;BME280;3038;51.122;6.840;2022-08-01T05:56:57;101338.16;;;20.52;84.38
6020;BME280;3038;51.122;6.840;2022-08-01T05:59:27;101336.41;;;20.52;84.38
6020;BME280;3038;51.122;6.840;2022-08-01T06:01:52;101333.69;;;20.54;84.20
6020;BME280;3038;51.122;6.840;2022-08-01T06:04:17;101338.34;;;20.64;84.27
6020;BME280;3038;51.122;6.840;2022-08-01T06:06:43;101336.63;;;20.79;83.84
6020;BME280;3038;51.122;6.840;2022-08-01T06:09:08;101331.38;;;20.79;83.24
6020;BME280;3038;51.122;6.840;2022-08-01T06:11:34;101339.78;;;20.84;83.36
6020;BME280;3038;51.122;6.840;2022-08-01T06:13:59;101338.50;;;20.92;82.87
6020;BME280;3038;51.122;6.840;2022-08-01T06:16:25;101343.75;;;21.06;82.59
6020;BME280;3038;51.122;6.840;2022-08-01T06:18:50;101339.84;;;21.13;81.84
6020;BME280;3038;51.122;6.840;2022-08-01T06:21:15;101345.25;;;21.10;80.89
6020;BME280;3038;51.122;6.840;2022-08-01T06:23:41;101333.84;;;20.97;81.13
6020;BME280;3038;51.122;6.840;2022-08-01T06:26:07;101340.50;;;21.17;80.97
6020;BME280;3038;51.122;6.840;2022-08-01T06:28:32;101324.00;;;21.45;79.45
6020;BME280;3038;51.122;6.840;2022-08-01T06:30:58;101334.06;;;21.65;78.93
6020;BME280;3038;51.122;6.840;2022-08-01T06:33:24;101335.53;;;21.84;77.15
6020;BME280;3038;51.122;6.840;2022-08-01T06:35:49;101336.56;;;21.81;76.87
6020;BME280;3038;51.122;6.840;2022-08-01T06:38:15;101328.56;;;21.97;76.66
6020;BME280;3038;51.122;6.840;2022-08-01T06:40:40;101333.78;;;22.12;75.42
6020;BME280;3038;51.122;6.840;2022-08-01T06:43:07;101334.19;;;22.05;75.62
6020;BME280;3038;51.122;6.840;2022-08-01T06:45:33;101334.88;;;21.95;75.98
6020;BME280;3038;51.122;6.840;2022-08-01T06:47:58;101344.81;;;21.75;76.33
6020;BME280;3038;51.122;6.840;2022-08-01T06:50:23;101340.06;;;21.68;76.29
6020;BME280;3038;51.122;6.840;2022-08-01T06:52:49;101337.72;;;21.63;76.52
6020;BME280;3038;51.122;6.840;2022-08-01T06:55:14;101340.22;;;21.64;76.62
6020;BME280;3038;51.122;6.840;2022-08-01T06:57:48;101345.47;;;21.64;76.33
6020;BME280;3038;51.122;6.840;2022-08-01T07:00:14;101343.41;;;21.70;76.83
6020;BME280;3038;51.122;6.840;2022-08-01T07:02:41;101344.72;;;21.77;76.11
6020;BME280;3038;51.122;6.840;2022-08-01T07:05:07;101341.78;;;21.81;75.53
6020;BME280;3038;51.122;6.840;2022-08-01T07:07:32;101345.56;;;21.77;75.04
6020;BME280;3038;51.122;6.840;2022-08-01T07:09:57;101345.59;;;21.63;75.55
6020;BME280;3038;51.122;6.840;2022-08-01T07:12:23;101344.09;;;21.59;75.68
6020;BME280;3038;51.122;6.840;2022-08-01T07:14:48;101341.56;;;21.57;75.54
6020;BME280;3038;51.122;6.840;2022-08-01T07:17:13;101337.44;;;21.68;75.82
6020;BME280;3038;51.122;6.840;2022-08-01T07:19:39;101343.13;;;21.74;75.24
6020;BME280;3038;51.122;6.840;2022-08-01T07:22:04;101344.31;;;21.83;74.85
6020;BME280;3038;51.122;6.840;2022-08-01T07:24:30;101343.75;;;21.92;74.41
6020;BME280;3038;51.122;6.840;2022-08-01T07:26:56;101343.03;;;21.76;74.54
6020;BME280;3038;51.122;6.840;2022-08-01T07:29:26;101346.50;;;21.76;74.19
6020;BME280;3038;51.122;6.840;2022-08-01T07:31:56;101346.78;;;21.72;74.72
6020;BME280;3038;51.122;6.840;2022-08-01T07:34:23;101348.44;;;21.87;74.47
6020;BME280;3038;51.122;6.840;2022-08-01T07:36:49;101353.78;;;22.13;73.44
6020;BME280;3038;51.122;6.840;2022-08-01T07:39:15;101351.31;;;22.38;72.63
6020;BME280;3038;51.122;6.840;2022-08-01T07:41:40;101359.69;;;22.71;71.56
6020;BME280;3038;51.122;6.840;2022-08-01T07:44:05;101360.78;;;22.94;70.24
6020;BME280;3038;51.122;6.840;2022-08-01T07:46:31;101356.34;;;22.94;69.93
6020;BME280;3038;51.122;6.840;2022-08-01T07:48:56;101361.00;;;22.91;69.49
6020;BME280;3038;51.122;6.840;2022-08-01T07:51:22;101361.50;;;22.96;69.38
6020;BME280;3038;51.122;6.840;2022-08-01T07:53:47;101364.06;;;23.10;69.29
6020;BME280;3038;51.122;6.840;2022-08-01T07:56:13;101370.56;;;23.17;69.03
6020;BME280;3038;51.122;6.840;2022-08-01T07:58:38;101365.66;;;23.13;68.49
6020;BME280;3038;51.122;6.840;2022-08-01T08:01:04;101369.09;;;23.13;68.92
6020;BME280;3038;51.122;6.840;2022-08-01T08:03:29;101357.16;;;23.22;67.92
6020;BME280;3038;51.122;6.840;2022-08-01T08:05:55;101360.09;;;23.30;66.99
6020;BME280;3038;51.122;6.840;2022-08-01T08:08:21;101369.94;;;23.52;67.02
6020;BME280;3038;51.122;6.840;2022-08-01T08:10:46;101373.50;;;23.64;66.49
6020;BME280;3038;51.122;6.840;2022-08-01T08:13:13;101365.50;;;23.65;65.51
6020;BME280;3038;51.122;6.840;2022-08-01T08:15:38;101364.47;;;23.81;65.37
6020;BME280;3038;51.122;6.840;2022-08-01T08:18:04;101363.50;;;23.82;65.22
6020;BME280;3038;51.122;6.840;2022-08-01T08:20:29;101368.44;;;23.74;64.83
6020;BME280;3038;51.122;6.840;2022-08-01T08:22:55;101376.53;;;23.71;64.40
6020;BME280;3038;51.122;6.840;2022-08-01T08:25:22;101371.72;;;23.77;64.46
6020;BME280;3038;51.122;6.840;2022-08-01T08:27:48;101367.59;;;23.86;63.71
6020;BME280;3038;51.122;6.840;2022-08-01T08:30:14;101372.31;;;23.94;63.05
6020;BME280;3038;51.122;6.840;2022-08-01T08:32:40;101371.53;;;24.04;63.10
6020;BME280;3038;51.122;6.840;2022-08-01T08:35:06;101377.75;;;24.03;62.95
6020;BME280;3038;51.122;6.840;2022-08-01T08:37:32;101367.13;;;24.05;62.87
6020;BME280;3038;51.122;6.840;2022-08-01T08:39:58;101380.28;;;23.92;63.22
6020;BME280;3038;51.122;6.840;2022-08-01T08:42:23;101374.91;;;24.06;62.45
6020;BME280;3038;51.122;6.840;2022-08-01T08:44:49;101374.69;;;24.34;61.59
6020;BME280;3038;51.122;6.840;2022-08-01T08:47:15;101373.91;;;24.44;61.03
6020;BME280;3038;51.122;6.840;2022-08-01T08:49:43;101375.75;;;24.55;60.23
6020;BME280;3038;51.122;6.840;2022-08-01T08:52:09;101382.13;;;24.40;60.75
6020;BME280;3038;51.122;6.840;2022-08-01T08:54:37;101381.91;;;24.67;60.77
6020;BME280;3038;51.122;6.840;2022-08-01T08:57:03;101378.81;;;24.73;60.46
6020;BME280;3038;51.122;6.840;2022-08-01T08:59:29;101382.63;;;24.69;60.50
6020;BME280;3038;51.122;6.840;2022-08-01T09:01:55;101385.94;;;24.36;60.84
6020;BME280;3038;51.122;6.840;2022-08-01T09:04:21;101383.59;;;24.44;60.69
6020;BME280;3038;51.122;6.840;2022-08-01T09:06:48;101381.25;;;24.52;60.55
6020;BME280;3038;51.122;6.840;2022-08-01T09:09:13;101385.88;;;24.73;60.87
6020;BME280;3038;51.122;6.840;2022-08-01T09:11:38;101384.84;;;24.86;59.24
6020;BME280;3038;51.122;6.840;2022-08-01T09:14:14;101385.53;;;24.77;59.60
6020;BME280;3038;51.122;6.840;2022-08-01T09:16:42;101385.91;;;24.84;59.55
6020;BME280;3038;51.122;6.840;2022-08-01T09:19:13;101381.56;;;24.72;58.90
6020;BME280;3038;51.122;6.840;2022-08-01T09:21:39;101380.19;;;24.55;59.21
6020;BME280;3038;51.122;6.840;2022-08-01T09:24:13;101388.59;;;24.47;59.16
6020;BME280;3038;51.122;6.840;2022-08-01T09:26:39;101385.69;;;24.52;59.02
6020;BME280;3038;51.122;6.840;2022-08-01T09:29:06;101394.22;;;24.42;58.37
6020;BME280;3038;51.122;6.840;2022-08-01T09:31:43;101403.41;;;24.37;57.37
6020;BME280;3038;51.122;6.840;2022-08-01T09:34:09;101392.41;;;24.43;57.90
6020;BME280;3038;51.122;6.840;2022-08-01T09:39:18;101394.34;;;25.12;57.12
6020;BME280;3038;51.122;6.840;2022-08-01T09:41:44;101385.69;;;25.67;56.25
6020;BME280;3038;51.122;6.840;2022-08-01T09:44:09;101388.28;;;26.01;55.13
6020;BME280;3038;51.122;6.840;2022-08-01T09:46:35;101389.06;;;26.24;54.07
6020;BME280;3038;51.122;6.840;2022-08-01T09:49:05;101394.28;;;26.03;53.17
6020;BME280;3038;51.122;6.840;2022-08-01T09:51:36;101401.25;;;25.71;54.52
6020;BME280;3038;51.122;6.840;2022-08-01T09:54:04;101396.69;;;25.61;54.95
6020;BME280;3038;51.122;6.840;2022-08-01T09:56:42;101391.06;;;25.55;54.50
6020;BME280;3038;51.122;6.840;2022-08-01T09:59:08;101394.56;;;25.44;55.13
6020;BME280;3038;51.122;6.840;2022-08-01T10:01:49;101396.47;;;25.64;53.02
6020;BME280;3038;51.122;6.840;2022-08-01T10:04:20;101396.94;;;25.69;54.02
6020;BME280;3038;51.122;6.840;2022-08-01T10:06:47;101396.69;;;26.06;54.00
6020;BME280;3038;51.122;6.840;2022-08-01T10:09:29;101394.00;;;26.18;51.13
6020;BME280;3038;51.122;6.840;2022-08-01T10:11:55;101386.75;;;26.42;52.55
6020;BME280;3038;51.122;6.840;2022-08-01T10:14:24;101387.97;;;26.38;51.14
6020;BME280;3038;51.122;6.840;2022-08-01T10:16:51;101384.41;;;26.60;51.61
6020;BME280;3038;51.122;6.840;2022-08-01T10:19:16;101381.34;;;26.76;50.42
6020;BME280;3038;51.122;6.840;2022-08-01T10:21:43;101378.84;;;26.42;50.79
6020;BME280;3038;51.122;6.840;2022-08-01T10:24:14;101380.03;;;26.38;50.91
6020;BME280;3038;51.122;6.840;2022-08-01T10:26:41;101389.94;;;26.57;50.31
6020;BME280;3038;51.122;6.840;2022-08-01T10:29:09;101394.41;;;26.78;50.11
6020;BME280;3038;51.122;6.840;2022-08-01T10:31:34;101391.06;;;26.97;49.60
6020;BME280;3038;51.122;6.840;2022-08-01T10:34:01;101389.19;;;27.08;50.21
6020;BME280;3038;51.122;6.840;2022-08-01T10:36:27;101387.09;;;27.23;49.68
6020;BME280;3038;51.122;6.840;2022-08-01T10:38:54;101376.72;;;27.41;48.91
6020;BME280;3038;51.122;6.840;2022-08-01T10:41:20;101388.34;;;27.29;47.91
6020;BME280;3038;51.122;6.840;2022-08-01T10:43:46;101384.13;;;27.47;48.38
6020;BME280;3038;51.122;6.840;2022-08-01T10:46:12;101379.31;;;27.62;48.06
6020;BME280;3038;51.122;6.840;2022-08-01T10:48:58;101386.00;;;27.26;47.12
6020;BME280;3038;51.122;6.840;2022-08-01T10:51:27;101389.53;;;26.94;47.92
6020;BME280;3038;51.122;6.840;2022-08-01T10:53:54;101384.28;;;26.83;48.69
6020;BME280;3038;51.122;6.840;2022-08-01T10:56:23;101387.44;;;27.19;47.93
6020;BME280;3038;51.122;6.840;2022-08-01T10:58:49;101380.19;;;27.42;47.08
6020;BME280;3038;51.122;6.840;2022-08-01T11:04:29;101389.13;;;27.20;48.47
6020;BME280;3038;51.122;6.840;2022-08-01T11:08:59;101379.06;;;26.39;49.70
6020;BME280;3038;51.122;6.840;2022-08-01T11:11:25;101384.88;;;26.22;50.72
6020;BME280;3038;51.122;6.840;2022-08-01T11:16:30;101378.50;;;25.92;51.04
6020;BME280;3038;51.122;6.840;2022-08-01T11:18:56;101375.97;;;25.79;50.63
6020;BME280;3038;51.122;6.840;2022-08-01T11:21:21;101378.59;;;25.79;51.07
6020;BME280;3038;51.122;6.840;2022-08-01T11:23:51;101375.97;;;25.91;50.77
6020;BME280;3038;51.122;6.840;2022-08-01T11:26:19;101382.50;;;27.56;47.30
6020;BME280;3038;51.122;6.840;2022-08-01T11:28:46;101368.31;;;29.70;42.92
6020;BME280;3038;51.122;6.840;2022-08-01T11:31:32;101374.50;;;29.88;41.80
6020;BME280;3038;51.122;6.840;2022-08-01T11:33:59;101365.72;;;30.60;39.52
6020;BME280;3038;51.122;6.840;2022-08-01T11:36:24;101371.63;;;29.82;40.52
6020;BME280;3038;51.122;6.840;2022-08-01T11:41:27;101362.03;;;30.17;41.22
6020;BME280;3038;51.122;6.840;2022-08-01T11:49:25;101360.47;;;30.68;38.83
6020;BME280;3038;51.122;6.840;2022-08-01T11:52:06;101370.81;;;29.44;40.21
6020;BME280;3038;51.122;6.840;2022-08-01T11:57:22;101355.50;;;30.65;38.80
6020;BME280;3038;51.122;6.840;2022-08-01T11:59:53;101364.09;;;29.12;42.00
6020;BME280;3038;51.122;6.840;2022-08-01T12:02:27;101357.22;;;29.29;42.04
6020;BME280;3038;51.122;6.840;2022-08-01T12:07:25;101359.28;;;28.29;43.21
6020;BME280;3038;51.122;6.840;2022-08-01T12:09:58;101355.81;;;30.44;39.04
6020;BME280;3038;51.122;6.840;2022-08-01T12:12:26;101356.59;;;31.83;37.30
6020;BME280;3038;51.122;6.840;2022-08-01T12:14:55;101351.69;;;32.62;34.94
6020;BME280;3038;51.122;6.840;2022-08-01T12:17:39;101357.63;;;33.05;33.52
6020;BME280;3038;51.122;6.840;2022-08-01T12:20:19;101355.69;;;32.75;33.14
6020;BME280;3038;51.122;6.840;2022-08-01T12:22:44;101352.81;;;32.92;33.17
6020;BME280;3038;51.122;6.840;2022-08-01T12:25:12;101346.44;;;33.58;32.13
6020;BME280;3038;51.122;6.840;2022-08-01T12:27:40;101350.75;;;33.59;31.15
6020;BME280;3038;51.122;6.840;2022-08-01T12:30:07;101351.13;;;34.33;30.12
6020;BME280;3038;51.122;6.840;2022-08-01T12:32:36;101335.75;;;34.35;29.39
6020;BME280;3038;51.122;6.840;2022-08-01T12:35:07;101348.13;;;33.03;29.93
6020;BME280;3038;51.122;6.840;2022-08-01T12:37:53;101349.47;;;33.07;30.97
6020;BME280;3038;51.122;6.840;2022-08-01T12:40:21;101344.47;;;33.83;30.54
6020;BME280;3038;51.122;6.840;2022-08-01T12:42:55;101351.06;;;34.64;28.23
6020;BME280;3038;51.122;6.840;2022-08-01T12:45:25;101346.63;;;35.46;27.28
6020;BME280;3038;51.122;6.840;2022-08-01T12:47:53;101351.22;;;35.52;28.94
6020;BME280;3038;51.122;6.840;2022-08-01T12:50:20;101351.59;;;34.14;29.37
6020;BME280;3038;51.122;6.840;2022-08-01T12:52:47;101342.81;;;33.03;31.83
6020;BME280;3038;51.122;6.840;2022-08-01T12:55:23;101338.84;;;33.38;31.06
6020;BME280;3038;51.122;6.840;2022-08-01T12:58:02;101340.06;;;33.90;31.61
6020;BME280;3038;51.122;6.840;2022-08-01T13:00:28;101337.19;;;34.00;31.02
6020;BME280;3038;51.122;6.840;2022-08-01T13:03:05;101346.38;;;32.13;31.50
6020;BME280;3038;51.122;6.840;2022-08-01T13:06:01;101351.47;;;30.61;32.97
6020;BME280;3038;51.122;6.840;2022-08-01T13:08:33;101346.75;;;30.99;32.81
6020;BME280;3038;51.122;6.840;2022-08-01T13:11:05;101359.91;;;30.56;34.37
6020;BME280;3038;51.122;6.840;2022-08-01T13:13:38;101358.81;;;29.95;35.50
6020;BME280;3038;51.122;6.840;2022-08-01T13:16:05;101353.75;;;29.09;36.80
6020;BME280;3038;51.122;6.840;2022-08-01T13:18:32;101357.06;;;28.54;38.03
6020;BME280;3038;51.122;6.840;2022-08-01T13:21:12;101361.13;;;28.68;38.44
6020;BME280;3038;51.122;6.840;2022-08-01T13:23:39;101355.94;;;28.57;38.49
6020;BME280;3038;51.122;6.840;2022-08-01T13:26:06;101349.66;;;29.62;36.84
6020;BME280;3038;51.122;6.840;2022-08-01T13:28:32;101352.16;;;29.63;36.50
6020;BME280;3038;51.122;6.840;2022-08-01T13:31:05;101342.53;;;30.08;35.86
6020;BME280;3038;51.122;6.840;2022-08-01T13:33:43;101346.50;;;30.04;35.13
6020;BME280;3038;51.122;6.840;2022-08-01T13:36:09;101348.50;;;30.64;35.18
6020;BME280;3038;51.122;6.840;2022-08-01T13:38:35;101338.38;;;30.23;35.23
6020;BME280;3038;51.122;6.840;2022-08-01T13:41:19;101346.19;;;29.24;37.62
6020;BME280;3038;51.122;6.840;2022-08-01T13:43:44;101352.03;;;28.80;39.02
6020;BME280;3038;51.122;6.840;2022-08-01T13:46:10;101349.22;;;28.82;40.02
6020;BME280;3038;51.122;6.840;2022-08-01T13:48:36;101352.41;;;29.42;38.72
6020;BME280;3038;51.122;6.840;2022-08-01T13:51:01;101349.81;;;30.06;38.00